Weather at Berane Airport

Public forecast

Using degrees Celsius for public forecast. Weather courtesy of forecast.io.

Closest aviation weather report (METAR) to Berane Airport

Closest report is Podgorica Airport / Podgorica Golubovci Airbase, 39.4 nm (73.1 km) SW. Retrieved 2022/06/29 10:00 UTC (15 minutes ago):

LYPG 291000Z VRB04KT CAVOK 34/15 Q1012 NOSIG

Closest aviation forecast (TAF) to Berane Airport

Closest forecast is Podgorica Airport / Podgorica Golubovci Airbase, 39.4 nm (73.1 km) SW. Retrieved 2022/06/29 06:21 UTC (4 hours ago):

TAF LYPG 290500Z 2906/3006 17006KT 9999 FEW050 TX38/2914Z TN23/3003Z